Time;durP1;ratioP1;P1;durP2;ratioP2;P2;SDS_P1;SDS_P2;PMS_P1;PMS_P2;Temp;Humidity;BMP_temperature;BMP_pressure;BME280_temperature;BME280_humidity;BME280_pressure;Samples;Min_cycle;Max_cycle;Signal;HPM_P1;HPM_P2
2022/07/18 00:00:01;;;;;;;;;11.00;11.00;;;;;27.95;29.67;101872.50;5091508;27;54286;-77
2022/07/18 00:02:26;;;;;;;;;12.67;10.67;;;;;27.91;30.09;101879.91;5082535;27;46681;-78
2022/07/18 00:04:52;;;;;;;;;11.67;10.33;;;;;27.85;29.79;101882.88;5084541;27;64777;-77
2022/07/18 00:07:18;;;;;;;;;12.00;12.00;;;;;27.81;29.87;101875.84;5085118;27;45458;-77
2022/07/18 00:09:43;;;;;;;;;11.67;10.00;;;;;27.77;30.06;101870.63;5092588;27;45603;-77
2022/07/18 00:12:10;;;;;;;;;15.00;11.33;;;;;27.72;30.26;101876.25;5080230;27;46891;-76
2022/07/18 00:14:36;;;;;;;;;13.33;12.33;;;;;27.69;30.15;101879.03;5084813;27;45696;-77
2022/07/18 00:17:03;;;;;;;;;10.67;10.67;;;;;27.65;30.69;101872.00;5088935;27;45261;-76
2022/07/18 00:19:29;;;;;;;;;15.33;13.67;;;;;27.60;30.80;101871.34;5087268;27;46098;-77
2022/07/18 00:21:54;;;;;;;;;12.33;12.00;;;;;27.53;30.93;101865.28;5092970;27;47127;-76
2022/07/18 00:24:20;;;;;;;;;11.67;11.00;;;;;27.50;31.06;101867.25;5085952;27;45597;-77
2022/07/18 00:26:45;;;;;;;;;13.00;11.00;;;;;27.47;31.45;101873.69;5078649;27;62978;-76
2022/07/18 00:29:10;;;;;;;;;11.00;11.00;;;;;27.42;31.34;101864.84;5081640;27;60312;-77
2022/07/18 00:31:36;;;;;;;;;12.33;11.00;;;;;27.39;31.10;101874.03;5082364;27;69541;-76
2022/07/18 00:34:02;;;;;;;;;11.00;11.00;;;;;27.33;31.61;101871.56;5088680;27;45267;-75
2022/07/18 00:36:28;;;;;;;;;9.33;9.33;;;;;27.32;32.12;101877.03;5084891;27;45417;-77
2022/07/18 00:38:54;;;;;;;;;9.67;9.67;;;;;27.27;31.71;101868.22;5088506;27;45440;-77
2022/07/18 00:41:20;;;;;;;;;13.00;10.67;;;;;27.23;32.18;101867.47;5088277;27;47414;-76
2022/07/18 00:43:45;;;;;;;;;12.67;10.33;;;;;27.19;31.82;101862.25;5085093;27;58403;-76
2022/07/18 00:46:11;;;;;;;;;13.33;9.33;;;;;27.15;31.96;101866.91;5084266;27;45501;-77
2022/07/18 00:48:38;;;;;;;;;11.00;9.33;;;;;27.11;32.50;101865.25;5082128;27;45384;-77
2022/07/18 00:51:03;;;;;;;;;11.00;8.00;;;;;27.08;32.56;101870.84;5091442;27;46592;-77
2022/07/18 00:53:28;;;;;;;;;12.67;11.00;;;;;27.03;32.07;101873.69;5085038;27;45486;-77
2022/07/18 00:55:54;;;;;;;;;12.00;10.33;;;;;26.99;32.87;101860.31;5085913;27;65703;-76
2022/07/18 00:58:20;;;;;;;;;10.33;10.33;;;;;26.97;32.35;101857.69;5069951;27;46146;-76
2022/07/18 01:03:29;;;;;;;;;10.67;10.00;;;;;26.88;32.98;101852.63;5082036;27;45284;-75
2022/07/18 01:05:54;;;;;;;;;12.33;12.33;;;;;26.86;32.63;101857.25;5079349;27;45605;-77
2022/07/18 01:08:20;;;;;;;;;12.67;11.33;;;;;26.81;33.02;101852.00;5085992;27;48797;-77
2022/07/18 01:10:45;;;;;;;;;12.33;10.00;;;;;26.78;32.68;101851.25;5086554;27;46488;-77
2022/07/18 01:13:10;;;;;;;;;13.33;12.00;;;;;26.76;33.50;101854.03;5084075;27;50414;-76
2022/07/18 01:15:39;;;;;;;;;16.00;13.67;;;;;26.72;33.25;101854.19;5081679;27;61540;-77
2022/07/18 01:18:04;;;;;;;;;10.67;10.67;;;;;26.69;33.51;101849.81;5083413;27;45700;-77
2022/07/18 01:20:30;;;;;;;;;12.67;12.33;;;;;26.66;33.65;101857.16;5081206;27;47390;-76
2022/07/18 01:22:57;;;;;;;;;11.67;10.00;;;;;26.62;33.70;101859.09;5068154;27;45349;-76
2022/07/18 01:25:22;;;;;;;;;14.33;13.67;;;;;26.61;32.97;101858.22;5083111;27;45300;-77
2022/07/18 01:27:48;;;;;;;;;14.00;11.00;;;;;26.58;33.50;101866.50;5089827;27;45519;-77
2022/07/18 01:30:14;;;;;;;;;12.00;12.00;;;;;26.56;33.64;101862.94;5085043;27;46216;-76
2022/07/18 01:32:41;;;;;;;;;12.33;11.33;;;;;26.53;33.78;101868.50;5088475;27;45543;-77
2022/07/18 01:35:06;;;;;;;;;12.00;10.67;;;;;26.50;33.22;101865.00;5086104;27;45200;-76
2022/07/18 01:37:32;;;;;;;;;14.33;13.00;;;;;26.49;33.59;101872.25;5086223;27;45512;-78
2022/07/18 01:39:57;;;;;;;;;12.00;10.67;;;;;26.48;33.39;101859.66;5087107;27;62522;-77
2022/07/18 01:42:22;;;;;;;;;11.67;10.00;;;;;26.48;33.16;101854.25;5087365;27;60059;-77
2022/07/18 01:44:48;;;;;;;;;17.33;13.33;;;;;26.45;33.85;101851.63;5086600;27;45625;-76
2022/07/18 01:47:13;;;;;;;;;11.00;10.00;;;;;26.44;33.73;101849.88;5063612;27;58337;-78
2022/07/18 01:49:39;;;;;;;;;12.00;12.00;;;;;26.41;33.82;101849.06;5086895;27;46153;-77
2022/07/18 01:52:05;;;;;;;;;12.33;10.33;;;;;26.38;34.06;101850.97;5086959;27;45395;-77
2022/07/18 01:54:32;;;;;;;;;12.67;10.00;;;;;26.35;33.70;101848.38;5088535;27;45485;-77
2022/07/18 01:57:01;;;;;;;;;11.00;10.00;;;;;26.32;33.76;101839.50;5084016;27;45509;-77
2022/07/18 01:59:27;;;;;;;;;9.67;9.67;;;;;26.28;33.85;101835.13;5070143;28;46294;-77
2022/07/18 02:01:52;;;;;;;;;12.00;10.00;;;;;26.27;34.20;101830.69;5084454;27;45413;-77
2022/07/18 02:04:18;;;;;;;;;16.00;12.00;;;;;26.24;34.08;101828.06;5087321;27;59851;-76
2022/07/18 02:06:43;;;;;;;;;11.00;10.00;;;;;26.21;34.28;101828.22;5081799;27;45487;-77
2022/07/18 02:09:09;;;;;;;;;15.00;11.67;;;;;26.18;34.17;101822.91;5090209;27;70821;-77
2022/07/18 02:11:35;;;;;;;;;11.00;9.33;;;;;26.12;34.48;101814.06;5088946;27;45327;-77
2022/07/18 02:14:01;;;;;;;;;12.33;11.00;;;;;26.11;34.10;101825.84;5086131;27;45373;-77
2022/07/18 02:16:26;;;;;;;;;13.33;11.00;;;;;26.07;34.91;101832.31;5088916;27;45434;-78
2022/07/18 02:18:51;;;;;;;;;15.00;12.00;;;;;26.04;34.41;101831.53;5089217;27;48273;-76
2022/07/18 02:21:17;;;;;;;;;14.00;12.67;;;;;26.00;34.54;101835.31;5071706;27;65020;-77
2022/07/18 02:23:43;;;;;;;;;10.67;10.67;;;;;25.96;35.23;101829.13;5086468;27;62406;-77
2022/07/18 02:26:09;;;;;;;;;12.67;12.67;;;;;25.94;34.82;101822.91;5090899;27;45562;-77
2022/07/18 02:28:35;;;;;;;;;14.00;9.67;;;;;25.90;34.93;101823.06;5091117;27;45639;-76
2022/07/18 02:31:00;;;;;;;;;9.67;9.67;;;;;25.88;34.92;101831.22;5089027;27;45545;-76
2022/07/18 02:33:25;;;;;;;;;12.00;10.67;;;;;25.83;35.20;101833.19;5093635;27;45837;-76
2022/07/18 02:35:51;;;;;;;;;11.00;9.33;;;;;25.82;35.42;101832.31;5088122;27;45653;-77
2022/07/18 02:38:17;;;;;;;;;10.00;10.00;;;;;25.80;35.34;101828.81;5094662;27;46574;-77
2022/07/18 02:40:42;;;;;;;;;15.67;11.00;;;;;25.78;35.43;101829.78;5088922;27;45315;-77
2022/07/18 02:43:08;;;;;;;;;12.00;10.33;;;;;25.75;35.29;101836.22;5089806;27;63745;-77
2022/07/18 02:45:34;;;;;;;;;11.67;10.33;;;;;25.72;35.79;101827.28;5090322;27;58675;-77
2022/07/18 02:47:59;;;;;;;;;11.67;11.67;;;;;25.70;35.30;101826.47;5085853;27;46478;-77
2022/07/18 02:50:25;;;;;;;;;16.00;13.00;;;;;25.70;35.49;101837.28;5090513;27;45271;-77
2022/07/18 02:52:50;;;;;;;;;13.67;10.00;;;;;25.68;35.53;101839.16;5088188;27;45382;-77
2022/07/18 02:55:15;;;;;;;;;15.00;14.00;;;;;25.66;35.44;101835.63;5090208;27;45355;-78
2022/07/18 02:57:41;;;;;;;;;13.00;11.00;;;;;25.65;35.78;101847.38;5086634;27;45695;-77
2022/07/18 03:00:09;;;;;;;;;14.67;13.67;;;;;25.63;35.33;101849.25;5088062;27;45528;-78
2022/07/18 03:02:35;;;;;;;;;13.00;13.00;;;;;25.58;35.27;101847.59;5088095;27;45288;-77
2022/07/18 03:05:01;;;;;;;;;14.33;14.00;;;;;25.58;35.84;101838.59;5090734;27;45601;-76
2022/07/18 03:07:26;;;;;;;;;12.00;11.00;;;;;25.57;35.40;101847.66;5077580;27;47566;-76
2022/07/18 03:09:52;;;;;;;;;18.00;14.00;;;;;25.56;35.90;101849.47;5087340;27;64905;-77
2022/07/18 03:12:17;;;;;;;;;18.67;13.33;;;;;25.54;35.80;101847.75;5085840;27;57292;-77
2022/07/18 03:14:43;;;;;;;;;20.00;15.00;;;;;25.55;35.86;101842.28;5078496;27;45474;-77
2022/07/18 03:17:08;;;;;;;;;18.33;16.00;;;;;25.55;36.04;101834.16;5085173;27;46482;-77
2022/07/18 03:19:34;;;;;;;;;18.00;17.00;;;;;25.53;35.62;101821.66;5087346;27;45436;-78
2022/07/18 03:22:00;;;;;;;;;22.67;16.33;;;;;25.54;35.95;101818.88;5087713;27;45471;-77
2022/07/18 03:24:25;;;;;;;;;18.67;17.00;;;;;25.53;36.00;101818.94;5089451;27;45649;-78
2022/07/18 03:26:51;;;;;;;;;17.67;15.00;;;;;25.50;35.82;101825.34;5085708;27;67910;-76
2022/07/18 03:29:16;;;;;;;;;16.50;15.00;;;;;25.48;35.96;101820.94;5087107;27;45323;-77
2022/07/18 03:31:41;;;;;;;;;16.00;15.33;;;;;25.46;36.24;101820.09;5090089;27;56470;-77
2022/07/18 03:34:07;;;;;;;;;14.33;14.33;;;;;25.45;36.38;101818.31;5084904;27;45655;-76
2022/07/18 03:36:32;;;;;;;;;15.00;15.00;;;;;25.42;36.31;101811.22;5068998;27;47581;-77
2022/07/18 03:38:58;;;;;;;;;16.67;15.33;;;;;25.38;36.48;101806.84;5067188;27;45605;-78
2022/07/18 03:41:23;;;;;;;;;17.00;14.00;;;;;25.37;36.03;101813.19;5084965;27;62291;-77
2022/07/18 03:43:48;;;;;;;;;14.33;14.33;;;;;25.34;36.69;101819.59;5089217;27;45449;-77
2022/07/18 03:46:14;;;;;;;;;15.67;15.67;;;;;25.30;36.64;101804.44;5085952;27;68932;-77
2022/07/18 03:48:39;;;;;;;;;15.33;15.00;;;;;25.28;36.79;101814.38;5088482;27;66002;-77
2022/07/18 03:51:05;;;;;;;;;13.00;13.00;;;;;25.25;36.79;101813.63;5086806;27;56069;-77
2022/07/18 03:53:31;;;;;;;;;14.00;12.33;;;;;25.21;36.26;101811.97;5089816;27;51223;-75
2022/07/18 03:55:56;;;;;;;;;13.00;13.00;;;;;25.20;36.61;101816.50;5086359;27;47536;-76
2022/07/18 03:58:21;;;;;;;;;14.00;12.33;;;;;25.19;36.75;101821.94;5085658;27;61255;-76
2022/07/18 04:00:47;;;;;;;;;13.67;13.33;;;;;25.16;36.50;101828.34;5088632;27;45300;-77
2022/07/18 04:03:13;;;;;;;;;16.33;14.00;;;;;25.15;37.12;101829.28;5066882;27;45400;-77
2022/07/18 04:05:38;;;;;;;;;13.33;11.00;;;;;25.16;37.02;101836.44;5090592;27;46225;-78
2022/07/18 04:08:04;;;;;;;;;17.00;13.00;;;;;25.16;36.84;101833.75;5085282;27;56673;-77
2022/07/18 04:10:29;;;;;;;;;14.67;13.00;;;;;25.16;36.75;101828.34;5078339;28;45354;-77
2022/07/18 04:12:55;;;;;;;;;13.00;11.33;;;;;25.17;37.26;101834.63;5080581;27;45628;-77
2022/07/18 04:15:22;;;;;;;;;15.67;14.00;;;;;25.14;37.06;101821.19;5075580;27;46411;-77
2022/07/18 04:17:47;;;;;;;;;14.67;12.00;;;;;25.17;37.03;101831.94;5078237;27;45541;-76
2022/07/18 04:20:14;;;;;;;;;16.67;14.33;;;;;25.14;37.24;101830.22;5085258;27;60865;-77
2022/07/18 04:22:52;;;;;;;;;15.33;12.67;;;;;25.14;37.25;101827.53;5086466;27;45501;-76
2022/07/18 04:25:19;;;;;;;;;14.00;12.33;;;;;25.11;37.01;101821.31;5088874;27;47410;-77
2022/07/18 04:27:45;;;;;;;;;11.67;11.67;;;;;25.11;37.19;101816.78;5087079;27;45405;-76
2022/07/18 04:30:11;;;;;;;;;16.33;15.67;;;;;25.12;37.51;101814.97;5084284;27;45491;-75
2022/07/18 04:32:37;;;;;;;;;13.67;13.33;;;;;25.08;36.89;101804.25;5091989;27;45428;-77
2022/07/18 04:35:04;;;;;;;;;16.33;14.33;;;;;25.08;37.66;101806.97;5087667;27;46547;-76
2022/07/18 04:37:31;;;;;;;;;13.00;13.00;;;;;25.08;37.39;101801.56;5089035;27;45280;-77
2022/07/18 04:39:56;;;;;;;;;14.00;14.00;;;;;25.08;37.27;101801.56;5086640;27;45534;-77
2022/07/18 04:42:21;;;;;;;;;16.00;14.00;;;;;25.10;37.24;101792.53;5085398;27;61164;-76
2022/07/18 04:44:47;;;;;;;;;19.67;14.67;;;;;25.07;37.27;101788.97;5085319;27;46990;-77
2022/07/18 04:47:12;;;;;;;;;13.67;13.67;;;;;25.07;37.72;101794.38;5084989;27;63373;-76
2022/07/18 04:49:37;;;;;;;;;12.67;12.67;;;;;25.05;37.97;101787.25;5088813;27;56737;-76
2022/07/18 04:52:03;;;;;;;;;17.00;13.00;;;;;25.04;37.67;101783.66;5086799;27;54617;-77
2022/07/18 04:54:28;;;;;;;;;14.33;14.33;;;;;25.03;37.29;101771.06;5079339;27;46174;-77
2022/07/18 04:56:54;;;;;;;;;13.00;13.00;;;;;25.04;37.64;101770.16;5090265;27;45460;-78
2022/07/18 04:59:19;;;;;;;;;15.67;14.00;;;;;25.03;37.69;101773.75;5085470;27;63472;-77
2022/07/18 05:01:44;;;;;;;;;16.00;14.00;;;;;25.02;38.17;101765.72;5084772;27;60238;-76
2022/07/18 05:04:10;;;;;;;;;16.33;14.00;;;;;25.02;38.23;101760.31;5076326;27;72041;-76
2022/07/18 05:06:35;;;;;;;;;16.33;14.00;;;;;24.97;38.40;101755.06;5088685;27;57456;-77
2022/07/18 05:09:00;;;;;;;;;14.67;13.00;;;;;25.02;38.62;101758.50;5089165;27;58644;-76
2022/07/18 05:11:26;;;;;;;;;13.00;13.00;;;;;25.01;38.57;101753.16;5085576;27;60148;-77
2022/07/18 05:13:51;;;;;;;;;13.00;13.00;;;;;25.00;38.81;101740.59;5085721;27;63675;-77
2022/07/18 05:16:16;;;;;;;;;14.33;12.67;;;;;25.00;38.97;101738.75;5084842;27;58231;-76
2022/07/18 05:18:42;;;;;;;;;15.33;13.33;;;;;25.00;39.23;101729.78;5084671;27;45367;-77
2022/07/18 05:21:07;;;;;;;;;15.33;12.00;;;;;25.02;39.33;101727.88;5086272;27;59369;-77
2022/07/18 05:23:32;;;;;;;;;15.33;12.00;;;;;25.02;39.70;101722.47;5088764;27;70533;-78
2022/07/18 05:25:58;;;;;;;;;14.00;14.00;;;;;25.04;40.23;101739.53;5096551;27;64959;-76
2022/07/18 05:28:23;;;;;;;;;15.00;14.00;;;;;25.02;39.99;101750.38;5066766;27;61935;-77
2022/07/18 05:30:48;;;;;;;;;11.00;11.00;;;;;25.03;40.51;101765.66;5077170;27;45503;-77
2022/07/18 05:33:14;;;;;;;;;14.33;14.33;;;;;25.07;40.34;101783.56;5085936;27;55189;-76
2022/07/18 05:35:39;;;;;;;;;14.00;13.00;;;;;25.10;40.11;101787.13;5073677;27;65924;-78
2022/07/18 05:38:04;;;;;;;;;13.00;13.00;;;;;25.14;39.96;101795.09;5084089;27;59838;-77
2022/07/18 05:40:30;;;;;;;;;15.00;13.67;;;;;25.16;39.53;101786.91;5087316;27;45399;-77
2022/07/18 05:42:55;;;;;;;;;14.00;13.00;;;;;25.20;39.77;101785.88;5083930;27;47084;-76
2022/07/18 05:45:24;;;;;;;;;20.67;16.33;;;;;25.25;39.47;101778.50;5086580;27;45203;-76
2022/07/18 05:47:50;;;;;;;;;17.67;13.67;;;;;25.28;39.89;101787.34;5080573;27;45383;-77
2022/07/18 05:50:16;;;;;;;;;17.00;14.00;;;;;25.33;39.82;101789.91;5089403;27;45248;-77
2022/07/18 05:52:41;;;;;;;;;18.67;15.67;;;;;25.37;39.29;101799.69;5094854;27;47332;-76
2022/07/18 05:55:07;;;;;;;;;16.00;11.67;;;;;25.39;39.10;101803.19;5089137;27;49706;-78
2022/07/18 05:57:32;;;;;;;;;12.33;10.33;;;;;25.43;39.32;101794.06;5087947;27;45507;-77
2022/07/18 05:59:58;;;;;;;;;14.67;12.67;;;;;25.45;38.76;101791.28;5091632;27;45446;-77
2022/07/18 06:02:23;;;;;;;;;17.00;14.00;;;;;25.50;39.12;101789.31;5085225;27;70495;-78
2022/07/18 06:04:48;;;;;;;;;11.33;11.33;;;;;25.52;38.98;101782.03;5088269;27;61791;-77
2022/07/18 06:07:14;;;;;;;;;13.67;8.00;;;;;25.53;38.57;101778.38;5084391;27;45915;-76
2022/07/18 06:09:39;;;;;;;;;12.00;9.33;;;;;25.54;38.98;101778.31;5089439;27;45280;-77
2022/07/18 06:12:05;;;;;;;;;13.00;10.00;;;;;25.57;38.84;101780.94;5080389;27;63954;-76
2022/07/18 06:14:31;;;;;;;;;12.00;9.00;;;;;25.57;39.22;101783.63;5077159;27;45520;-76
2022/07/18 06:16:57;;;;;;;;;11.33;10.33;;;;;25.59;38.89;101787.16;5089785;27;45260;-78
2022/07/18 06:19:23;;;;;;;;;10.67;9.00;;;;;25.60;39.13;101775.38;5088169;27;45465;-79
2022/07/18 06:21:48;;;;;;;;;10.67;9.33;;;;;25.63;39.12;101776.22;5089550;27;46736;-78
2022/07/18 06:24:13;;;;;;;;;7.33;7.00;;;;;25.67;39.21;101783.28;5087336;27;45384;-79
2022/07/18 06:26:39;;;;;;;;;12.00;9.00;;;;;25.70;39.25;101780.47;5083509;27;55741;-77
2022/07/18 06:29:04;;;;;;;;;11.00;9.00;;;;;25.71;38.61;101780.41;5092911;27;59347;-77
2022/07/18 06:31:30;;;;;;;;;9.33;8.33;;;;;25.74;39.24;101782.13;5080861;27;47438;-78
2022/07/18 06:33:55;;;;;;;;;10.00;10.00;;;;;25.77;38.49;101790.16;5084259;27;69290;-76
2022/07/18 06:36:23;;;;;;;;;13.67;11.67;;;;;25.78;38.59;101789.19;5074132;27;64259;-76
2022/07/18 06:38:52;;;;;;;;;11.33;10.67;;;;;25.82;39.12;101793.56;5078532;27;45526;-77
2022/07/18 06:41:18;;;;;;;;;11.00;9.33;;;;;25.83;39.05;101796.25;5079542;27;46483;-77
2022/07/18 06:43:44;;;;;;;;;10.67;10.00;;;;;25.86;39.37;101793.41;5077036;27;45554;-77
2022/07/18 06:46:09;;;;;;;;;10.33;9.00;;;;;25.90;39.25;101786.06;5079719;27;45637;-78
2022/07/18 06:48:35;;;;;;;;;10.00;7.00;;;;;25.94;39.64;101789.50;5078594;27;51826;-78
2022/07/18 06:51:04;;;;;;;;;11.00;11.00;;;;;25.97;39.09;101789.41;5076196;27;47649;-77
2022/07/18 06:53:30;;;;;;;;;12.00;11.00;;;;;26.00;39.35;101792.00;5078774;27;45300;-78
2022/07/18 06:55:56;;;;;;;;;13.00;10.33;;;;;26.03;38.70;101798.16;5079924;27;45537;-77
2022/07/18 06:58:21;;;;;;;;;23.33;11.00;;;;;26.05;38.98;101799.00;5077872;27;45927;-77
2022/07/18 07:00:46;;;;;;;;;15.33;10.67;;;;;26.09;38.71;101797.03;5075341;27;72097;-78
2022/07/18 07:03:12;;;;;;;;;13.00;10.00;;;;;26.15;39.21;101798.63;5077896;27;61372;-77
2022/07/18 07:05:38;;;;;;;;;18.33;12.67;;;;;26.18;38.40;101807.53;5079434;27;57318;-78
2022/07/18 07:08:03;;;;;;;;;21.00;15.33;;;;;26.23;38.98;101801.94;5080452;27;45435;-77
2022/07/18 07:10:28;;;;;;;;;13.00;9.00;;;;;26.25;38.16;101798.22;5077289;27;46482;-78
2022/07/18 07:12:54;;;;;;;;;8.33;8.33;;;;;26.30;38.57;101788.09;5075239;27;63088;-78
2022/07/18 07:15:22;;;;;;;;;14.33;10.67;;;;;26.37;38.77;101797.75;5076014;27;61648;-77
2022/07/18 07:17:48;;;;;;;;;13.33;11.00;;;;;26.41;38.22;101792.19;5076296;27;45525;-78
2022/07/18 07:20:14;;;;;;;;;13.67;10.00;;;;;26.47;39.00;101800.13;5078270;27;46641;-77
2022/07/18 07:23:07;;;;;;;;;12.33;9.67;;;;;26.51;38.30;101794.50;5059615;27;45520;-78
2022/07/18 07:25:33;;;;;;;;;9.33;9.33;;;;;26.53;38.24;101792.66;5069634;27;45465;-78
2022/07/18 07:27:58;;;;;;;;;14.00;9.00;;;;;26.57;38.37;101794.25;5075846;27;46154;-78
2022/07/18 07:30:23;;;;;;;;;14.00;10.00;;;;;26.64;38.57;101787.66;5075659;27;66349;-81
2022/07/18 07:32:50;;;;;;;;;11.00;10.00;;;;;26.68;38.81;101788.41;5076923;27;45479;-78
2022/07/18 07:35:17;;;;;;;;;20.33;14.33;;;;;26.73;38.67;101783.69;5074270;27;45477;-79
2022/07/18 07:37:50;;;;;;;;;14.00;10.00;;;;;26.78;38.10;101778.94;5075795;27;45649;-78
2022/07/18 07:40:16;;;;;;;;;9.33;9.00;;;;;26.84;38.43;101783.22;5079348;27;48643;-78
2022/07/18 07:42:42;;;;;;;;;13.33;10.67;;;;;26.87;38.16;101775.00;5076369;27;45506;-77
2022/07/18 07:45:09;;;;;;;;;11.67;9.67;;;;;26.93;38.69;101766.59;5083743;27;46134;-77
2022/07/18 07:47:35;;;;;;;;;10.67;10.00;;;;;26.99;38.37;101762.75;5078115;27;45524;-78
2022/07/18 07:50:00;;;;;;;;;11.00;9.67;;;;;27.03;38.68;101757.13;5087386;27;47627;-78
2022/07/18 07:52:27;;;;;;;;;13.00;11.00;;;;;27.08;38.38;101763.25;5080092;27;45283;-78
2022/07/18 07:54:52;;;;;;;;;13.00;9.67;;;;;27.13;39.51;101760.34;5078798;27;45640;-78
2022/07/18 07:57:18;;;;;;;;;7.67;7.67;;;;;27.18;39.11;101758.34;5079595;27;63574;-77
2022/07/18 07:59:44;;;;;;;;;11.00;9.00;;;;;27.23;39.17;101756.31;5081412;27;48214;-78
2022/07/18 08:02:09;;;;;;;;;10.00;7.33;;;;;27.27;38.80;101757.03;5080432;27;45446;-79
2022/07/18 08:04:35;;;;;;;;;7.00;7.00;;;;;27.33;40.34;101763.09;5080152;27;45419;-78
2022/07/18 08:07:00;;;;;;;;;9.33;8.00;;;;;27.37;40.30;101752.97;5081382;27;59452;-77
2022/07/18 08:09:26;;;;;;;;;8.00;8.00;;;;;27.42;40.16;101757.22;5083638;27;46412;-79
2022/07/18 08:11:51;;;;;;;;;11.00;10.00;;;;;27.45;40.23;101761.66;5077826;27;45459;-78
2022/07/18 08:14:17;;;;;;;;;9.33;8.00;;;;;27.49;39.18;101752.44;5077648;27;45858;-78
2022/07/18 08:16:42;;;;;;;;;9.00;7.67;;;;;27.55;38.69;101751.28;5076797;27;60792;-79
2022/07/18 08:19:08;;;;;;;;;7.67;7.67;;;;;27.58;38.51;101749.28;5078126;27;51793;-78
2022/07/18 08:21:33;;;;;;;;;10.67;9.00;;;;;27.64;37.97;101754.41;5078217;27;45629;-77
2022/07/18 08:23:58;;;;;;;;;8.67;6.67;;;;;27.69;36.72;101749.66;5077512;27;45407;-76
2022/07/18 08:26:24;;;;;;;;;7.00;7.00;;;;;27.74;36.60;101752.22;5076991;27;45316;-78
2022/07/18 08:28:50;;;;;;;;;7.33;5.00;;;;;27.81;36.30;101750.13;5078716;27;46920;-77
2022/07/18 08:31:16;;;;;;;;;6.67;5.00;;;;;27.87;36.59;101752.53;5078975;27;66540;-76
2022/07/18 08:33:41;;;;;;;;;7.00;5.33;;;;;27.92;35.37;101747.78;5076766;27;45483;-76
2022/07/18 08:36:08;;;;;;;;;6.33;6.33;;;;;27.99;35.35;101748.34;5082768;27;58696;-76
2022/07/18 08:38:33;;;;;;;;;5.33;5.33;;;;;28.06;35.58;101749.81;5081815;27;46991;-77
2022/07/18 08:41:00;;;;;;;;;8.67;7.67;;;;;28.11;35.59;101761.34;5078315;27;45512;-76
2022/07/18 08:43:26;;;;;;;;;9.67;9.33;;;;;28.15;34.43;101757.53;5087407;27;45486;-76
2022/07/18 08:45:56;;;;;;;;;16.00;11.33;;;;;28.23;34.76;101759.88;5080169;27;45635;-76
2022/07/18 08:48:21;;;;;;;;;17.67;15.00;;;;;28.28;34.30;101757.81;5080703;27;45920;-75
2022/07/18 08:50:47;;;;;;;;;17.00;16.00;;;;;28.33;34.18;101761.22;5066654;27;61343;-76
2022/07/18 08:53:14;;;;;;;;;10.00;9.00;;;;;28.38;33.94;101757.31;5080958;27;45498;-75
2022/07/18 08:55:40;;;;;;;;;14.33;8.00;;;;;28.44;33.24;101756.16;5078295;27;45647;-76
2022/07/18 08:58:05;;;;;;;;;8.33;6.00;;;;;28.48;33.43;101749.59;5072557;27;46599;-76
2022/07/18 09:00:30;;;;;;;;;9.00;7.67;;;;;28.54;33.56;101754.75;5080458;27;45535;-77
2022/07/18 09:03:00;;;;;;;;;9.33;7.00;;;;;28.59;33.37;101749.97;5085590;27;45519;-76
2022/07/18 09:05:25;;;;;;;;;7.00;7.00;;;;;28.64;33.10;101744.28;5082291;27;45582;-76
2022/07/18 09:07:51;;;;;;;;;7.00;7.00;;;;;28.66;33.73;101746.00;5077315;27;47586;-77
2022/07/18 09:10:16;;;;;;;;;8.67;8.00;;;;;28.71;33.59;101746.66;5085989;27;63808;-76
2022/07/18 09:12:56;;;;;;;;;7.00;6.67;;;;;28.77;33.47;101744.56;5139194;22;63850;-75
2022/07/18 09:15:22;;;;;;;;;11.00;7.00;;;;;28.83;33.44;101744.25;5031107;28;45376;-76
2022/07/18 09:17:50;;;;;;;;;9.00;6.67;;;;;28.88;33.63;101748.50;5035336;28;47769;-76
2022/07/18 09:20:16;;;;;;;;;8.67;6.67;;;;;28.92;33.62;101749.19;5030719;28;45785;-76
2022/07/18 09:22:44;;;;;;;;;7.00;4.00;;;;;28.99;33.00;101744.38;5028604;28;56871;-76
2022/07/18 09:25:12;;;;;;;;;7.67;6.67;;;;;29.05;32.62;101746.78;5033149;28;45527;-76
2022/07/18 09:27:39;;;;;;;;;8.00;6.33;;;;;29.12;32.48;101740.94;5031010;28;46457;-76
2022/07/18 09:30:11;;;;;;;;;7.33;6.33;;;;;29.17;32.81;101749.72;5034237;28;45372;-75
2022/07/18 09:32:38;;;;;;;;;6.00;6.00;;;;;29.22;32.06;101750.38;5034817;28;45631;-76
2022/07/18 09:35:11;;;;;;;;;7.67;7.67;;;;;29.30;32.17;101751.84;5030738;28;45500;-76
2022/07/18 09:37:39;;;;;;;;;7.00;7.00;;;;;29.33;32.09;101757.09;5033741;28;46777;-76
2022/07/18 09:40:26;;;;;;;;;7.33;7.00;;;;;29.40;31.93;101750.34;5033737;28;45515;-77
2022/07/18 09:42:57;;;;;;;;;8.33;5.33;;;;;29.46;31.80;101755.50;5031507;28;45491;-77
2022/07/18 09:45:31;;;;;;;;;6.67;6.67;;;;;29.54;31.38;101750.53;5030298;28;45557;-77
2022/07/18 09:48:08;;;;;;;;;6.33;5.00;;;;;29.60;31.09;101750.19;5032999;28;48844;-76
2022/07/18 09:50:41;;;;;;;;;7.33;5.67;;;;;29.65;30.99;101755.41;5032876;28;45987;-76
2022/07/18 09:53:11;;;;;;;;;4.00;4.00;;;;;29.69;30.94;101757.00;5035447;28;45479;-77
2022/07/18 09:55:48;;;;;;;;;6.00;4.33;;;;;29.74;30.85;101746.75;5034586;28;45509;-75
2022/07/18 09:58:16;;;;;;;;;6.67;5.00;;;;;29.80;31.10;101742.78;5015534;28;47829;-77
2022/07/18 10:00:42;;;;;;;;;7.00;4.67;;;;;29.90;30.95;101744.94;5034198;28;45622;-76
2022/07/18 10:03:08;;;;;;;;;6.67;6.67;;;;;29.96;30.67;101738.25;5034199;28;45451;-76
2022/07/18 10:05:37;;;;;;;;;6.33;5.67;;;;;30.00;30.16;101732.56;5034367;28;45356;-76
2022/07/18 10:08:06;;;;;;;;;9.67;5.67;;;;;30.06;30.20;101734.06;5031838;28;46690;-76
2022/07/18 10:10:32;;;;;;;;;6.00;6.00;;;;;30.10;30.43;101740.22;5030963;28;46150;-75
2022/07/18 10:13:00;;;;;;;;;6.33;4.67;;;;;30.14;30.78;101729.06;5033641;28;45527;-77
2022/07/18 10:15:28;;;;;;;;;5.67;5.67;;;;;30.20;30.51;101727.84;5015031;28;46487;-76
2022/07/18 10:17:54;;;;;;;;;5.00;5.00;;;;;30.26;30.35;101725.66;5034400;28;47408;-75
2022/07/18 10:20:27;;;;;;;;;5.67;5.00;;;;;30.37;30.16;101727.78;5032639;28;45435;-76
2022/07/18 10:22:57;;;;;;;;;5.67;5.67;;;;;30.44;30.43;101722.84;5033939;28;45349;-75
2022/07/18 10:25:25;;;;;;;;;4.33;4.33;;;;;30.50;30.41;101715.16;5015783;28;45490;-76
2022/07/18 10:27:52;;;;;;;;;5.00;5.00;;;;;30.57;30.30;101714.81;5033484;28;47500;-76
2022/07/18 10:30:29;;;;;;;;;5.33;5.33;;;;;30.66;30.53;101715.16;5032954;28;45626;-76
2022/07/18 10:32:54;;;;;;;;;6.33;5.00;;;;;30.75;30.92;101711.03;5035339;28;45746;-75
2022/07/18 10:35:59;;;;;;;;;4.00;4.00;;;;;30.85;30.43;101708.63;5019311;28;45641;-75
2022/07/18 10:38:25;;;;;;;;;6.33;5.33;;;;;30.90;30.56;101699.22;5032968;28;45865;-75
2022/07/18 10:41:11;;;;;;;;;6.00;6.00;;;;;30.96;29.88;101712.47;5038891;28;45342;-77
2022/07/18 10:43:42;;;;;;;;;7.00;7.00;;;;;31.05;29.63;101711.00;5034040;28;45210;-76
2022/07/18 10:46:09;;;;;;;;;5.00;5.00;;;;;31.13;29.77;101710.56;5034705;28;46626;-77
2022/07/18 10:48:37;;;;;;;;;7.00;7.00;;;;;31.24;29.59;101705.31;5038119;28;47849;-75
2022/07/18 10:51:06;;;;;;;;;8.00;5.00;;;;;31.37;30.24;101713.63;5038228;28;45360;-76
2022/07/18 10:54:02;;;;;;;;;8.00;8.00;;;;;31.43;29.95;101705.09;5038208;28;45162;-75
2022/07/18 10:56:27;;;;;;;;;8.67;7.00;;;;;31.51;29.81;101705.47;5035948;28;45585;-74
2022/07/18 10:58:55;;;;;;;;;5.00;5.00;;;;;31.61;29.46;101711.22;5037426;28;46687;-76
2022/07/18 11:01:20;;;;;;;;;9.33;8.00;;;;;31.67;29.14;101708.09;5036711;28;45655;-75
2022/07/18 11:03:46;;;;;;;;;6.33;6.33;;;;;31.71;27.49;101705.09;5018414;28;61998;-76
2022/07/18 11:06:11;;;;;;;;;6.00;6.00;;;;;31.79;28.86;101707.31;5019182;28;45493;-75
2022/07/18 11:08:37;;;;;;;;;9.33;8.00;;;;;31.87;28.73;101704.13;5035319;28;67355;-76
2022/07/18 11:11:02;;;;;;;;;7.00;7.00;;;;;31.92;28.53;101701.97;5035381;28;68973;-75
2022/07/18 11:13:34;;;;;;;;;5.00;5.00;;;;;31.97;28.37;101702.56;5036696;28;45374;-75